sensor_id;sensor_type;location;lat;lon;timestamp;temperature;humidity
9919;DHT22;4998;51.024;13.828;2023-02-01T00:00:05;9.40;85.50
9919;DHT22;4998;51.024;13.828;2023-02-01T00:02:32;9.40;85.20
9919;DHT22;4998;51.024;13.828;2023-02-01T00:04:59;9.30;84.90
9919;DHT22;4998;51.024;13.828;2023-02-01T00:07:26;9.20;84.40
9919;DHT22;4998;51.024;13.828;2023-02-01T00:09:53;9.30;84.50
9919;DHT22;4998;51.024;13.828;2023-02-01T00:12:20;9.30;84.30
9919;DHT22;4998;51.024;13.828;2023-02-01T00:14:48;9.30;83.80
9919;DHT22;4998;51.024;13.828;2023-02-01T00:17:15;9.30;83.90
9919;DHT22;4998;51.024;13.828;2023-02-01T00:19:43;9.20;83.70
9919;DHT22;4998;51.024;13.828;2023-02-01T00:22:10;9.20;83.70
9919;DHT22;4998;51.024;13.828;2023-02-01T00:24:38;9.20;83.80
9919;DHT22;4998;51.024;13.828;2023-02-01T00:27:05;9.20;83.60
9919;DHT22;4998;51.024;13.828;2023-02-01T00:29:33;9.20;84.40
9919;DHT22;4998;51.024;13.828;2023-02-01T00:32:02;9.20;83.60
9919;DHT22;4998;51.024;13.828;2023-02-01T00:34:29;9.20;83.70
9919;DHT22;4998;51.024;13.828;2023-02-01T00:36:56;9.20;83.90
9919;DHT22;4998;51.024;13.828;2023-02-01T00:39:23;9.20;83.90
9919;DHT22;4998;51.024;13.828;2023-02-01T00:41:50;9.20;83.80
9919;DHT22;4998;51.024;13.828;2023-02-01T00:44:18;9.20;83.90
9919;DHT22;4998;51.024;13.828;2023-02-01T00:46:45;9.20;83.90
9919;DHT22;4998;51.024;13.828;2023-02-01T00:49:14;9.20;83.90
9919;DHT22;4998;51.024;13.828;2023-02-01T00:51:41;9.20;83.70
9919;DHT22;4998;51.024;13.828;2023-02-01T00:54:08;9.20;83.80
9919;DHT22;4998;51.024;13.828;2023-02-01T00:56:35;9.20;83.70
9919;DHT22;4998;51.024;13.828;2023-02-01T00:59:02;9.20;83.60
9919;DHT22;4998;51.024;13.828;2023-02-01T01:01:29;9.20;83.50
9919;DHT22;4998;51.024;13.828;2023-02-01T01:03:58;9.20;83.30
9919;DHT22;4998;51.024;13.828;2023-02-01T01:06:29;9.20;83.10
9919;DHT22;4998;51.024;13.828;2023-02-01T01:08:58;9.20;82.90
9919;DHT22;4998;51.024;13.828;2023-02-01T01:11:27;9.20;82.90
9919;DHT22;4998;51.024;13.828;2023-02-01T01:13:57;9.20;82.80
9919;DHT22;4998;51.024;13.828;2023-02-01T01:16:25;9.20;82.50
9919;DHT22;4998;51.024;13.828;2023-02-01T01:18:53;9.20;82.10
9919;DHT22;4998;51.024;13.828;2023-02-01T01:21:21;9.20;82.20
9919;DHT22;4998;51.024;13.828;2023-02-01T01:23:50;9.20;81.80
9919;DHT22;4998;51.024;13.828;2023-02-01T01:26:18;9.20;81.70
9919;DHT22;4998;51.024;13.828;2023-02-01T01:28:47;9.20;81.60
9919;DHT22;4998;51.024;13.828;2023-02-01T01:31:15;9.20;81.60
9919;DHT22;4998;51.024;13.828;2023-02-01T01:33:43;9.20;81.20
9919;DHT22;4998;51.024;13.828;2023-02-01T01:36:11;9.20;81.30
9919;DHT22;4998;51.024;13.828;2023-02-01T01:38:41;9.20;81.10
9919;DHT22;4998;51.024;13.828;2023-02-01T01:41:14;9.20;81.10
9919;DHT22;4998;51.024;13.828;2023-02-01T01:43:48;9.20;81.20
9919;DHT22;4998;51.024;13.828;2023-02-01T01:46:18;9.20;81.00
9919;DHT22;4998;51.024;13.828;2023-02-01T01:48:46;9.20;80.80
9919;DHT22;4998;51.024;13.828;2023-02-01T01:51:15;9.20;80.40
9919;DHT22;4998;51.024;13.828;2023-02-01T01:53:47;9.20;80.50
9919;DHT22;4998;51.024;13.828;2023-02-01T01:56:17;9.20;80.10
9919;DHT22;4998;51.024;13.828;2023-02-01T01:58:44;9.20;79.90
9919;DHT22;4998;51.024;13.828;2023-02-01T02:01:11;9.10;79.60
9919;DHT22;4998;51.024;13.828;2023-02-01T02:03:40;9.20;79.60
9919;DHT22;4998;51.024;13.828;2023-02-01T02:06:14;9.20;79.20
9919;DHT22;4998;51.024;13.828;2023-02-01T02:08:42;9.20;79.50
9919;DHT22;4998;51.024;13.828;2023-02-01T02:11:12;9.20;79.30
9919;DHT22;4998;51.024;13.828;2023-02-01T02:13:46;9.20;79.10
9919;DHT22;4998;51.024;13.828;2023-02-01T02:19:29;9.20;78.80
9919;DHT22;4998;51.024;13.828;2023-02-01T02:22:19;9.20;78.50
9919;DHT22;4998;51.024;13.828;2023-02-01T02:25:23;9.20;78.60
9919;DHT22;4998;51.024;13.828;2023-02-01T02:27:59;9.20;78.30
9919;DHT22;4998;51.024;13.828;2023-02-01T02:30:44;9.20;78.10
9919;DHT22;4998;51.024;13.828;2023-02-01T02:33:42;9.20;77.70
9919;DHT22;4998;51.024;13.828;2023-02-01T02:36:17;9.20;77.90
9919;DHT22;4998;51.024;13.828;2023-02-01T02:38:51;9.20;77.50
9919;DHT22;4998;51.024;13.828;2023-02-01T02:41:26;9.20;77.40
9919;DHT22;4998;51.024;13.828;2023-02-01T02:44:13;9.20;76.80
9919;DHT22;4998;51.024;13.828;2023-02-01T02:47:05;9.20;76.90
9919;DHT22;4998;51.024;13.828;2023-02-01T02:49:56;9.20;76.80
9919;DHT22;4998;51.024;13.828;2023-02-01T02:52:46;9.20;76.20
9919;DHT22;4998;51.024;13.828;2023-02-01T02:55:33;9.20;76.40
9919;DHT22;4998;51.024;13.828;2023-02-01T02:58:03;9.10;76.10
9919;DHT22;4998;51.024;13.828;2023-02-01T03:00:49;9.10;76.30
9919;DHT22;4998;51.024;13.828;2023-02-01T03:03:37;9.10;76.40
9919;DHT22;4998;51.024;13.828;2023-02-01T03:06:24;9.10;76.00
9919;DHT22;4998;51.024;13.828;2023-02-01T03:08:54;9.10;76.20
9919;DHT22;4998;51.024;13.828;2023-02-01T03:11:24;9.10;76.20
9919;DHT22;4998;51.024;13.828;2023-02-01T03:14:14;9.10;76.10
9919;DHT22;4998;51.024;13.828;2023-02-01T03:16:45;9.10;76.10
9919;DHT22;4998;51.024;13.828;2023-02-01T03:19:17;9.10;76.20
9919;DHT22;4998;51.024;13.828;2023-02-01T03:21:50;9.10;76.00
9919;DHT22;4998;51.024;13.828;2023-02-01T03:24:24;9.10;76.00
9919;DHT22;4998;51.024;13.828;2023-02-01T03:27:02;9.10;76.10
9919;DHT22;4998;51.024;13.828;2023-02-01T03:29:38;9.10;76.00
9919;DHT22;4998;51.024;13.828;2023-02-01T03:32:07;9.10;75.90
9919;DHT22;4998;51.024;13.828;2023-02-01T03:34:36;9.10;75.60
9919;DHT22;4998;51.024;13.828;2023-02-01T03:37:06;9.00;75.70
9919;DHT22;4998;51.024;13.828;2023-02-01T03:39:38;9.00;75.60
9919;DHT22;4998;51.024;13.828;2023-02-01T03:42:10;9.10;75.80
9919;DHT22;4998;51.024;13.828;2023-02-01T03:44:42;9.10;75.80
9919;DHT22;4998;51.024;13.828;2023-02-01T03:47:16;9.10;75.70
9919;DHT22;4998;51.024;13.828;2023-02-01T03:49:49;9.10;75.40
9919;DHT22;4998;51.024;13.828;2023-02-01T03:52:28;9.00;75.30
9919;DHT22;4998;51.024;13.828;2023-02-01T03:54:56;9.10;75.40
9919;DHT22;4998;51.024;13.828;2023-02-01T03:57:27;9.00;75.10
9919;DHT22;4998;51.024;13.828;2023-02-01T04:00:04;9.10;75.30
9919;DHT22;4998;51.024;13.828;2023-02-01T04:02:33;9.10;75.40
9919;DHT22;4998;51.024;13.828;2023-02-01T04:05:00;9.10;75.20
9919;DHT22;4998;51.024;13.828;2023-02-01T04:07:29;9.20;75.10
9919;DHT22;4998;51.024;13.828;2023-02-01T04:09:56;9.10;74.90
9919;DHT22;4998;51.024;13.828;2023-02-01T04:12:23;9.10;74.90
9919;DHT22;4998;51.024;13.828;2023-02-01T04:14:50;9.10;74.80
9919;DHT22;4998;51.024;13.828;2023-02-01T04:17:18;9.10;74.60
9919;DHT22;4998;51.024;13.828;2023-02-01T04:19:45;9.20;74.60
9919;DHT22;4998;51.024;13.828;2023-02-01T04:22:12;9.20;74.50
9919;DHT22;4998;51.024;13.828;2023-02-01T04:24:40;9.20;74.40
9919;DHT22;4998;51.024;13.828;2023-02-01T04:27:08;9.20;74.40
9919;DHT22;4998;51.024;13.828;2023-02-01T04:29:35;9.20;74.10
9919;DHT22;4998;51.024;13.828;2023-02-01T04:32:02;9.20;73.70
9919;DHT22;4998;51.024;13.828;2023-02-01T04:34:29;9.20;73.70
9919;DHT22;4998;51.024;13.828;2023-02-01T04:36:57;9.20;73.70
9919;DHT22;4998;51.024;13.828;2023-02-01T04:39:25;9.20;73.40
9919;DHT22;4998;51.024;13.828;2023-02-01T04:41:54;9.20;73.40
9919;DHT22;4998;51.024;13.828;2023-02-01T04:44:21;9.20;73.00
9919;DHT22;4998;51.024;13.828;2023-02-01T04:46:48;9.20;73.10
9919;DHT22;4998;51.024;13.828;2023-02-01T04:49:15;9.20;72.90
9919;DHT22;4998;51.024;13.828;2023-02-01T04:51:43;9.20;72.80
9919;DHT22;4998;51.024;13.828;2023-02-01T04:54:10;9.20;72.80
9919;DHT22;4998;51.024;13.828;2023-02-01T04:56:38;9.20;72.90
9919;DHT22;4998;51.024;13.828;2023-02-01T04:59:07;9.20;72.80
9919;DHT22;4998;51.024;13.828;2023-02-01T05:01:34;9.20;72.60
9919;DHT22;4998;51.024;13.828;2023-02-01T05:04:01;9.20;72.70
9919;DHT22;4998;51.024;13.828;2023-02-01T05:06:28;9.20;72.70
9919;DHT22;4998;51.024;13.828;2023-02-01T05:08:55;9.20;72.70
9919;DHT22;4998;51.024;13.828;2023-02-01T05:11:22;9.20;72.40
9919;DHT22;4998;51.024;13.828;2023-02-01T05:14:08;9.20;72.30
9919;DHT22;4998;51.024;13.828;2023-02-01T05:16:35;9.20;72.20
9919;DHT22;4998;51.024;13.828;2023-02-01T05:19:02;9.20;72.10
9919;DHT22;4998;51.024;13.828;2023-02-01T05:21:29;9.20;72.00
9919;DHT22;4998;51.024;13.828;2023-02-01T05:23:56;9.20;72.20
9919;DHT22;4998;51.024;13.828;2023-02-01T05:26:36;9.20;71.90
9919;DHT22;4998;51.024;13.828;2023-02-01T05:29:04;9.20;71.80
9919;DHT22;4998;51.024;13.828;2023-02-01T05:31:33;9.20;71.60
9919;DHT22;4998;51.024;13.828;2023-02-01T05:34:01;9.20;70.90
9919;DHT22;4998;51.024;13.828;2023-02-01T05:36:29;9.20;71.20
9919;DHT22;4998;51.024;13.828;2023-02-01T05:38:56;9.10;71.50
9919;DHT22;4998;51.024;13.828;2023-02-01T05:41:24;9.20;72.10
9919;DHT22;4998;51.024;13.828;2023-02-01T05:43:51;9.30;72.00
9919;DHT22;4998;51.024;13.828;2023-02-01T05:46:18;9.30;71.70
9919;DHT22;4998;51.024;13.828;2023-02-01T05:48:46;9.30;71.40
9919;DHT22;4998;51.024;13.828;2023-02-01T05:51:13;9.40;71.10
9919;DHT22;4998;51.024;13.828;2023-02-01T05:53:40;9.40;70.90
9919;DHT22;4998;51.024;13.828;2023-02-01T05:56:07;9.40;70.60
9919;DHT22;4998;51.024;13.828;2023-02-01T05:58:34;9.30;70.40
9919;DHT22;4998;51.024;13.828;2023-02-01T06:01:03;9.30;70.30
9919;DHT22;4998;51.024;13.828;2023-02-01T06:03:30;9.30;70.30
9919;DHT22;4998;51.024;13.828;2023-02-01T06:05:58;9.30;70.30
9919;DHT22;4998;51.024;13.828;2023-02-01T06:08:26;9.30;70.20
9919;DHT22;4998;51.024;13.828;2023-02-01T06:10:58;9.30;70.20
9919;DHT22;4998;51.024;13.828;2023-02-01T06:13:25;9.30;71.20
9919;DHT22;4998;51.024;13.828;2023-02-01T06:15:52;9.30;70.40
9919;DHT22;4998;51.024;13.828;2023-02-01T06:18:19;9.30;70.50
9919;DHT22;4998;51.024;13.828;2023-02-01T06:20:52;9.30;70.40
9919;DHT22;4998;51.024;13.828;2023-02-01T06:23:21;9.30;70.40
9919;DHT22;4998;51.024;13.828;2023-02-01T06:25:50;9.30;70.40
9919;DHT22;4998;51.024;13.828;2023-02-01T06:28:17;9.30;69.90
9919;DHT22;4998;51.024;13.828;2023-02-01T06:30:45;9.30;69.90
9919;DHT22;4998;51.024;13.828;2023-02-01T06:33:13;9.30;69.70
9919;DHT22;4998;51.024;13.828;2023-02-01T06:35:41;9.30;69.90
9919;DHT22;4998;51.024;13.828;2023-02-01T06:38:10;9.30;70.00
9919;DHT22;4998;51.024;13.828;2023-02-01T06:40:40;9.30;70.20
9919;DHT22;4998;51.024;13.828;2023-02-01T06:43:07;9.30;69.70
9919;DHT22;4998;51.024;13.828;2023-02-01T06:45:34;9.30;69.90
9919;DHT22;4998;51.024;13.828;2023-02-01T06:48:01;9.30;69.90
9919;DHT22;4998;51.024;13.828;2023-02-01T06:50:28;9.30;69.90
9919;DHT22;4998;51.024;13.828;2023-02-01T06:52:55;9.30;70.00
9919;DHT22;4998;51.024;13.828;2023-02-01T06:55:23;9.30;70.40
9919;DHT22;4998;51.024;13.828;2023-02-01T06:57:54;9.30;70.50
9919;DHT22;4998;51.024;13.828;2023-02-01T07:00:22;9.30;70.60
9919;DHT22;4998;51.024;13.828;2023-02-01T07:02:50;9.20;70.50
9919;DHT22;4998;51.024;13.828;2023-02-01T07:05:17;9.20;71.50
9919;DHT22;4998;51.024;13.828;2023-02-01T07:07:44;9.20;70.80
9919;DHT22;4998;51.024;13.828;2023-02-01T07:10:12;9.20;70.90
9919;DHT22;4998;51.024;13.828;2023-02-01T07:12:39;9.20;70.90
9919;DHT22;4998;51.024;13.828;2023-02-01T07:15:08;9.20;71.10
9919;DHT22;4998;51.024;13.828;2023-02-01T07:17:36;9.20;71.20
9919;DHT22;4998;51.024;13.828;2023-02-01T07:20:03;9.20;71.50
9919;DHT22;4998;51.024;13.828;2023-02-01T07:22:31;9.20;71.90
9919;DHT22;4998;51.024;13.828;2023-02-01T07:24:58;9.20;72.30
9919;DHT22;4998;51.024;13.828;2023-02-01T07:27:25;9.10;72.60
9919;DHT22;4998;51.024;13.828;2023-02-01T07:29:52;9.20;73.00
9919;DHT22;4998;51.024;13.828;2023-02-01T07:32:22;9.10;73.30
9919;DHT22;4998;51.024;13.828;2023-02-01T07:34:49;9.10;73.90
9919;DHT22;4998;51.024;13.828;2023-02-01T07:37:16;9.10;74.00
9919;DHT22;4998;51.024;13.828;2023-02-01T07:39:44;9.00;74.30
9919;DHT22;4998;51.024;13.828;2023-02-01T07:42:11;9.00;74.80
9919;DHT22;4998;51.024;13.828;2023-02-01T07:44:38;8.90;75.20
9919;DHT22;4998;51.024;13.828;2023-02-01T07:47:05;9.00;75.70
9919;DHT22;4998;51.024;13.828;2023-02-01T07:49:33;8.80;75.70
9919;DHT22;4998;51.024;13.828;2023-02-01T07:52:00;8.80;76.10
9919;DHT22;4998;51.024;13.828;2023-02-01T07:54:27;8.70;76.10
9919;DHT22;4998;51.024;13.828;2023-02-01T07:56:54;8.70;76.40
9919;DHT22;4998;51.024;13.828;2023-02-01T07:59:21;8.70;76.80
9919;DHT22;4998;51.024;13.828;2023-02-01T08:01:48;8.60;77.00
9919;DHT22;4998;51.024;13.828;2023-02-01T08:04:14;8.60;77.00
9919;DHT22;4998;51.024;13.828;2023-02-01T08:06:43;8.60;77.10
9919;DHT22;4998;51.024;13.828;2023-02-01T08:09:10;8.60;77.30
9919;DHT22;4998;51.024;13.828;2023-02-01T08:11:38;8.60;77.40
9919;DHT22;4998;51.024;13.828;2023-02-01T08:14:05;8.60;77.60
9919;DHT22;4998;51.024;13.828;2023-02-01T08:16:32;8.60;77.80
9919;DHT22;4998;51.024;13.828;2023-02-01T08:19:02;8.60;77.70
9919;DHT22;4998;51.024;13.828;2023-02-01T08:21:29;8.60;78.00
9919;DHT22;4998;51.024;13.828;2023-02-01T08:24:04;8.60;78.00
9919;DHT22;4998;51.024;13.828;2023-02-01T08:26:31;8.60;78.10
9919;DHT22;4998;51.024;13.828;2023-02-01T08:29:01;8.60;78.00
9919;DHT22;4998;51.024;13.828;2023-02-01T08:31:29;8.60;78.10
9919;DHT22;4998;51.024;13.828;2023-02-01T08:33:58;8.60;78.20
9919;DHT22;4998;51.024;13.828;2023-02-01T08:36:27;8.60;78.40
9919;DHT22;4998;51.024;13.828;2023-02-01T08:38:54;8.60;78.60
9919;DHT22;4998;51.024;13.828;2023-02-01T08:41:25;8.70;78.80
9919;DHT22;4998;51.024;13.828;2023-02-01T08:43:53;8.60;78.80
9919;DHT22;4998;51.024;13.828;2023-02-01T08:46:20;8.60;78.70
9919;DHT22;4998;51.024;13.828;2023-02-01T08:48:48;8.60;78.60
9919;DHT22;4998;51.024;13.828;2023-02-01T08:51:17;8.60;79.30
9919;DHT22;4998;51.024;13.828;2023-02-01T08:53:45;8.60;77.80
9919;DHT22;4998;51.024;13.828;2023-02-01T08:56:14;8.70;78.40
9919;DHT22;4998;51.024;13.828;2023-02-01T08:58:43;8.70;78.20
9919;DHT22;4998;51.024;13.828;2023-02-01T09:01:12;8.70;77.90
9919;DHT22;4998;51.024;13.828;2023-02-01T09:03:39;8.80;77.60
9919;DHT22;4998;51.024;13.828;2023-02-01T09:06:08;8.80;77.60
9919;DHT22;4998;51.024;13.828;2023-02-01T09:08:36;8.80;76.80
9919;DHT22;4998;51.024;13.828;2023-02-01T09:11:05;8.90;76.50
9919;DHT22;4998;51.024;13.828;2023-02-01T09:13:33;8.90;76.60
9919;DHT22;4998;51.024;13.828;2023-02-01T09:16:03;9.00;76.60
9919;DHT22;4998;51.024;13.828;2023-02-01T09:18:30;9.00;76.20
9919;DHT22;4998;51.024;13.828;2023-02-01T09:20:58;9.10;76.40
9919;DHT22;4998;51.024;13.828;2023-02-01T09:23:25;9.10;75.90
9919;DHT22;4998;51.024;13.828;2023-02-01T09:25:52;9.20;75.90
9919;DHT22;4998;51.024;13.828;2023-02-01T09:28:19;9.20;75.90
9919;DHT22;4998;51.024;13.828;2023-02-01T09:30:46;9.20;75.60
9919;DHT22;4998;51.024;13.828;2023-02-01T09:33:15;9.20;75.70
9919;DHT22;4998;51.024;13.828;2023-02-01T09:35:43;9.30;75.80
9919;DHT22;4998;51.024;13.828;2023-02-01T09:38:10;9.30;76.00
9919;DHT22;4998;51.024;13.828;2023-02-01T09:40:42;9.30;76.10
9919;DHT22;4998;51.024;13.828;2023-02-01T09:43:20;9.30;76.60
9919;DHT22;4998;51.024;13.828;2023-02-01T09:45:56;9.20;76.70
9919;DHT22;4998;51.024;13.828;2023-02-01T09:48:31;9.20;77.20
9919;DHT22;4998;51.024;13.828;2023-02-01T09:51:02;9.20;77.00
9919;DHT22;4998;51.024;13.828;2023-02-01T09:53:34;9.10;77.50
9919;DHT22;4998;51.024;13.828;2023-02-01T09:56:05;9.10;78.00
9919;DHT22;4998;51.024;13.828;2023-02-01T09:58:36;9.00;78.70
9919;DHT22;4998;51.024;13.828;2023-02-01T10:01:09;9.00;79.50
9919;DHT22;4998;51.024;13.828;2023-02-01T10:03:42;8.90;79.60
9919;DHT22;4998;51.024;13.828;2023-02-01T10:06:38;8.80;79.60
9919;DHT22;4998;51.024;13.828;2023-02-01T10:09:19;8.70;79.80
9919;DHT22;4998;51.024;13.828;2023-02-01T10:12:00;8.70;80.50
9919;DHT22;4998;51.024;13.828;2023-02-01T10:14:47;8.50;80.90
9919;DHT22;4998;51.024;13.828;2023-02-01T10:17:30;8.40;81.70
9919;DHT22;4998;51.024;13.828;2023-02-01T10:20:15;8.30;82.30
9919;DHT22;4998;51.024;13.828;2023-02-01T10:22:46;8.20;82.50
9919;DHT22;4998;51.024;13.828;2023-02-01T10:25:18;8.10;82.80
9919;DHT22;4998;51.024;13.828;2023-02-01T10:27:49;8.00;83.80
9919;DHT22;4998;51.024;13.828;2023-02-01T10:30:19;8.00;84.20
9919;DHT22;4998;51.024;13.828;2023-02-01T10:32:49;7.90;84.30
9919;DHT22;4998;51.024;13.828;2023-02-01T10:35:25;7.90;84.60
9919;DHT22;4998;51.024;13.828;2023-02-01T10:37:53;7.80;84.80
9919;DHT22;4998;51.024;13.828;2023-02-01T10:40:24;7.80;85.40
9919;DHT22;4998;51.024;13.828;2023-02-01T10:42:53;7.80;85.70
9919;DHT22;4998;51.024;13.828;2023-02-01T10:45:22;7.80;86.00
9919;DHT22;4998;51.024;13.828;2023-02-01T10:47:53;7.80;86.20
9919;DHT22;4998;51.024;13.828;2023-02-01T10:50:33;7.70;87.00
9919;DHT22;4998;51.024;13.828;2023-02-01T10:53:04;7.80;87.30
9919;DHT22;4998;51.024;13.828;2023-02-01T10:55:36;7.80;87.50
9919;DHT22;4998;51.024;13.828;2023-02-01T10:58:06;7.80;87.70
9919;DHT22;4998;51.024;13.828;2023-02-01T11:00:42;7.80;88.00
9919;DHT22;4998;51.024;13.828;2023-02-01T11:03:39;7.80;88.00
9919;DHT22;4998;51.024;13.828;2023-02-01T11:06:18;7.90;88.30
9919;DHT22;4998;51.024;13.828;2023-02-01T11:08:48;7.90;88.60
9919;DHT22;4998;51.024;13.828;2023-02-01T11:11:15;8.00;89.00
9919;DHT22;4998;51.024;13.828;2023-02-01T11:13:43;8.10;89.30
9919;DHT22;4998;51.024;13.828;2023-02-01T11:16:13;8.10;89.30
9919;DHT22;4998;51.024;13.828;2023-02-01T11:18:41;8.20;89.20
9919;DHT22;4998;51.024;13.828;2023-02-01T11:21:09;8.20;89.30
9919;DHT22;4998;51.024;13.828;2023-02-01T11:23:43;8.30;89.30
9919;DHT22;4998;51.024;13.828;2023-02-01T11:26:13;8.40;89.20
9919;DHT22;4998;51.024;13.828;2023-02-01T11:28:50;8.50;89.00
9919;DHT22;4998;51.024;13.828;2023-02-01T11:31:18;8.60;88.80
9919;DHT22;4998;51.024;13.828;2023-02-01T11:33:49;8.70;88.60
9919;DHT22;4998;51.024;13.828;2023-02-01T11:36:20;8.70;88.40
9919;DHT22;4998;51.024;13.828;2023-02-01T11:38:53;8.80;88.30
9919;DHT22;4998;51.024;13.828;2023-02-01T11:41:22;8.80;87.90
9919;DHT22;4998;51.024;13.828;2023-02-01T11:43:55;8.90;87.20
9919;DHT22;4998;51.024;13.828;2023-02-01T11:46:28;8.90;86.80
9919;DHT22;4998;51.024;13.828;2023-02-01T11:48:56;9.00;86.60
9919;DHT22;4998;51.024;13.828;2023-02-01T11:51:42;9.00;86.40
9919;DHT22;4998;51.024;13.828;2023-02-01T11:54:26;9.10;86.30
9919;DHT22;4998;51.024;13.828;2023-02-01T11:57:04;9.10;85.70
9919;DHT22;4998;51.024;13.828;2023-02-01T12:02:59;9.20;85.40
9919;DHT22;4998;51.024;13.828;2023-02-01T12:05:41;9.20;85.30
9919;DHT22;4998;51.024;13.828;2023-02-01T12:08:21;9.30;85.00
9919;DHT22;4998;51.024;13.828;2023-02-01T12:11:01;9.30;84.70
9919;DHT22;4998;51.024;13.828;2023-02-01T12:13:41;9.30;84.70
9919;DHT22;4998;51.024;13.828;2023-02-01T12:16:20;9.30;84.50
9919;DHT22;4998;51.024;13.828;2023-02-01T12:19:12;9.30;84.60
9919;DHT22;4998;51.024;13.828;2023-02-01T12:21:49;9.40;84.50
9919;DHT22;4998;51.024;13.828;2023-02-01T12:33:20;9.50;83.90
9919;DHT22;4998;51.024;13.828;2023-02-01T12:36:00;9.50;83.20
9919;DHT22;4998;51.024;13.828;2023-02-01T12:38:42;9.50;82.60
9919;DHT22;4998;51.024;13.828;2023-02-01T12:44:17;9.50;81.80
9919;DHT22;4998;51.024;13.828;2023-02-01T12:46:49;9.50;81.30
9919;DHT22;4998;51.024;13.828;2023-02-01T12:49:21;9.50;81.20
9919;DHT22;4998;51.024;13.828;2023-02-01T12:51:54;9.60;81.30
9919;DHT22;4998;51.024;13.828;2023-02-01T12:54:25;9.60;81.30
9919;DHT22;4998;51.024;13.828;2023-02-01T12:56:56;9.60;81.30
9919;DHT22;4998;51.024;13.828;2023-02-01T12:59:28;9.60;81.30
9919;DHT22;4998;51.024;13.828;2023-02-01T13:02:06;9.60;80.40
9919;DHT22;4998;51.024;13.828;2023-02-01T13:04:49;9.70;81.10
9919;DHT22;4998;51.024;13.828;2023-02-01T13:07:18;9.70;80.80
9919;DHT22;4998;51.024;13.828;2023-02-01T13:09:50;9.70;80.70
9919;DHT22;4998;51.024;13.828;2023-02-01T13:12:24;9.70;80.40
9919;DHT22;4998;51.024;13.828;2023-02-01T13:14:55;9.80;80.60
9919;DHT22;4998;51.024;13.828;2023-02-01T13:17:26;9.80;80.40
9919;DHT22;4998;51.024;13.828;2023-02-01T13:19:57;9.80;80.60
9919;DHT22;4998;51.024;13.828;2023-02-01T13:22:29;9.80;80.40
9919;DHT22;4998;51.024;13.828;2023-02-01T13:24:58;9.80;79.90
9919;DHT22;4998;51.024;13.828;2023-02-01T13:27:27;9.90;80.10
9919;DHT22;4998;51.024;13.828;2023-02-01T13:29:58;9.90;79.80
9919;DHT22;4998;51.024;13.828;2023-02-01T13:32:55;9.90;79.60
9919;DHT22;4998;51.024;13.828;2023-02-01T13:35:38;9.90;79.30
9919;DHT22;4998;51.024;13.828;2023-02-01T13:38:49;9.90;79.10
9919;DHT22;4998;51.024;13.828;2023-02-01T13:41:27;10.00;79.00
9919;DHT22;4998;51.024;13.828;2023-02-01T13:43:59;10.00;77.30
9919;DHT22;4998;51.024;13.828;2023-02-01T13:46:27;10.00;76.90
9919;DHT22;4998;51.024;13.828;2023-02-01T13:48:58;10.00;76.40
9919;DHT22;4998;51.024;13.828;2023-02-01T13:51:35;10.00;76.40
9919;DHT22;4998;51.024;13.828;2023-02-01T13:54:03;10.10;76.20
9919;DHT22;4998;51.024;13.828;2023-02-01T13:56:40;10.10;75.90
9919;DHT22;4998;51.024;13.828;2023-02-01T14:08:37;10.20;74.80
9919;DHT22;4998;51.024;13.828;2023-02-01T14:11:05;10.10;74.50
9919;DHT22;4998;51.024;13.828;2023-02-01T14:13:34;10.20;74.20
9919;DHT22;4998;51.024;13.828;2023-02-01T14:16:13;10.20;73.90
9919;DHT22;4998;51.024;13.828;2023-02-01T14:18:59;10.20;73.70
9919;DHT22;4998;51.024;13.828;2023-02-01T14:21:29;10.30;73.20
9919;DHT22;4998;51.024;13.828;2023-02-01T14:24:01;10.30;73.40
9919;DHT22;4998;51.024;13.828;2023-02-01T14:26:42;10.30;73.10
9919;DHT22;4998;51.024;13.828;2023-02-01T14:29:26;10.30;72.60
9919;DHT22;4998;51.024;13.828;2023-02-01T14:32:01;10.30;72.30
9919;DHT22;4998;51.024;13.828;2023-02-01T14:34:39;10.30;71.40
9919;DHT22;4998;51.024;13.828;2023-02-01T14:37:25;10.30;71.70
9919;DHT22;4998;51.024;13.828;2023-02-01T14:39:57;10.40;71.40
9919;DHT22;4998;51.024;13.828;2023-02-01T14:42:29;10.40;71.10
9919;DHT22;4998;51.024;13.828;2023-02-01T14:51:05;10.40;70.80
9919;DHT22;4998;51.024;13.828;2023-02-01T14:53:33;10.40;70.70
9919;DHT22;4998;51.024;13.828;2023-02-01T14:56:06;10.30;69.10
9919;DHT22;4998;51.024;13.828;2023-02-01T14:58:40;10.30;69.40
9919;DHT22;4998;51.024;13.828;2023-02-01T15:01:17;10.30;69.50
9919;DHT22;4998;51.024;13.828;2023-02-01T15:03:50;10.30;69.10
9919;DHT22;4998;51.024;13.828;2023-02-01T15:06:39;10.30;69.10
9919;DHT22;4998;51.024;13.828;2023-02-01T15:09:10;10.30;69.60
9919;DHT22;4998;51.024;13.828;2023-02-01T15:11:58;10.30;69.00
9919;DHT22;4998;51.024;13.828;2023-02-01T15:14:26;10.20;69.10
9919;DHT22;4998;51.024;13.828;2023-02-01T15:16:54;10.30;69.20
9919;DHT22;4998;51.024;13.828;2023-02-01T15:19:22;10.30;69.20
9919;DHT22;4998;51.024;13.828;2023-02-01T15:21:52;10.30;70.00
9919;DHT22;4998;51.024;13.828;2023-02-01T15:24:22;10.30;68.80
9919;DHT22;4998;51.024;13.828;2023-02-01T15:26:49;10.30;69.00
9919;DHT22;4998;51.024;13.828;2023-02-01T15:29:19;10.30;69.30
9919;DHT22;4998;51.024;13.828;2023-02-01T15:31:47;10.20;69.40
9919;DHT22;4998;51.024;13.828;2023-02-01T15:34:15;10.20;69.90
9919;DHT22;4998;51.024;13.828;2023-02-01T15:36:44;10.20;70.20
9919;DHT22;4998;51.024;13.828;2023-02-01T15:39:16;10.20;70.30
9919;DHT22;4998;51.024;13.828;2023-02-01T15:41:48;10.10;70.20
9919;DHT22;4998;51.024;13.828;2023-02-01T15:44:29;10.00;70.20
9919;DHT22;4998;51.024;13.828;2023-02-01T15:46:57;10.00;70.40
9919;DHT22;4998;51.024;13.828;2023-02-01T15:49:27;9.90;71.60
9919;DHT22;4998;51.024;13.828;2023-02-01T15:51:57;9.90;71.70
9919;DHT22;4998;51.024;13.828;2023-02-01T15:54:26;9.90;71.60
9919;DHT22;4998;51.024;13.828;2023-02-01T15:56:58;9.90;71.50
9919;DHT22;4998;51.024;13.828;2023-02-01T15:59:30;9.80;71.50
9919;DHT22;4998;51.024;13.828;2023-02-01T16:01:58;9.80;71.50
9919;DHT22;4998;51.024;13.828;2023-02-01T16:04:28;9.80;71.80
9919;DHT22;4998;51.024;13.828;2023-02-01T16:06:58;9.80;71.90
9919;DHT22;4998;51.024;13.828;2023-02-01T16:09:37;9.80;73.60
9919;DHT22;4998;51.024;13.828;2023-02-01T16:12:30;9.80;74.20
9919;DHT22;4998;51.024;13.828;2023-02-01T16:14:58;9.90;75.40
9919;DHT22;4998;51.024;13.828;2023-02-01T16:17:25;10.00;75.50
9919;DHT22;4998;51.024;13.828;2023-02-01T16:19:52;10.20;75.40
9919;DHT22;4998;51.024;13.828;2023-02-01T16:22:20;10.30;74.50
9919;DHT22;4998;51.024;13.828;2023-02-01T16:24:47;10.40;73.20
9919;DHT22;4998;51.024;13.828;2023-02-01T16:27:14;10.40;72.40
9919;DHT22;4998;51.024;13.828;2023-02-01T16:29:41;10.40;71.90
9919;DHT22;4998;51.024;13.828;2023-02-01T16:32:16;10.30;71.70
9919;DHT22;4998;51.024;13.828;2023-02-01T16:34:44;10.20;71.50
9919;DHT22;4998;51.024;13.828;2023-02-01T16:37:12;10.10;71.40
9919;DHT22;4998;51.024;13.828;2023-02-01T16:39:40;10.00;71.70
9919;DHT22;4998;51.024;13.828;2023-02-01T16:42:11;9.80;72.80
9919;DHT22;4998;51.024;13.828;2023-02-01T16:44:38;9.70;73.40
9919;DHT22;4998;51.024;13.828;2023-02-01T16:47:14;9.60;73.70
9919;DHT22;4998;51.024;13.828;2023-02-01T16:49:42;9.50;74.20
9919;DHT22;4998;51.024;13.828;2023-02-01T16:52:14;9.50;74.40
9919;DHT22;4998;51.024;13.828;2023-02-01T16:54:42;9.30;75.20
9919;DHT22;4998;51.024;13.828;2023-02-01T16:57:12;9.30;75.40
9919;DHT22;4998;51.024;13.828;2023-02-01T16:59:40;9.20;75.90